createdAt,value
2018-10-09T00:01:03.516Z,8.17
2018-10-09T00:03:32.786Z,12.07
2018-10-09T00:06:01.537Z,8.50
2018-10-09T00:08:30.357Z,9.07
2018-10-09T00:10:59.266Z,10.57
2018-10-09T00:13:28.398Z,9.10
2018-10-09T00:15:56.981Z,14.83
2018-10-09T00:18:25.801Z,10.57
2018-10-09T00:20:54.378Z,12.73
2018-10-09T00:23:23.348Z,12.97
2018-10-09T00:25:51.932Z,12.50
2018-10-09T00:28:21.992Z,14.63
2018-10-09T00:30:50.887Z,12.57
2018-10-09T00:33:19.900Z,11.33
2018-10-09T00:35:48.397Z,10.93
2018-10-09T00:38:16.993Z,14.00
2018-10-09T00:40:45.943Z,16.30
2018-10-09T00:43:14.568Z,13.53
2018-10-09T00:45:43.141Z,12.07
2018-10-09T00:48:11.972Z,20.10
2018-10-09T00:50:40.529Z,14.53
2018-10-09T00:53:09.331Z,16.20
2018-10-09T00:55:37.908Z,13.87
2018-10-09T00:58:07.012Z,19.27
2018-10-09T01:00:35.557Z,11.47
2018-10-09T01:03:04.069Z,17.70
2018-10-09T01:05:32.905Z,11.27
2018-10-09T01:08:01.592Z,14.03
2018-10-09T01:10:30.176Z,16.77
2018-10-09T01:12:58.705Z,15.37
2018-10-09T01:15:27.253Z,17.33
2018-10-09T01:17:55.696Z,14.87
2018-10-09T01:20:31.788Z,12.83
2018-10-09T01:23:01.528Z,13.83
2018-10-09T01:25:30.208Z,13.27
2018-10-09T01:27:58.762Z,18.10
2018-10-09T01:30:27.186Z,15.93
2018-10-09T01:32:55.862Z,16.23
2018-10-09T01:35:24.488Z,20.67
2018-10-09T01:37:53.116Z,15.67
2018-10-09T01:40:21.586Z,12.17
2018-10-09T01:42:50.031Z,16.00
2018-10-09T01:45:18.560Z,16.27
2018-10-09T01:47:47.245Z,18.43
2018-10-09T01:50:15.684Z,22.70
2018-10-09T01:52:44.584Z,19.50
2018-10-09T01:55:13.052Z,22.60
2018-10-09T01:57:41.838Z,19.27
2018-10-09T02:00:11.211Z,22.10
2018-10-09T02:02:41.227Z,16.77
2018-10-09T02:05:09.797Z,19.60
2018-10-09T02:07:38.309Z,24.77
2018-10-09T02:10:06.959Z,17.30
2018-10-09T02:12:35.358Z,19.83
2018-10-09T02:15:04.076Z,18.87
2018-10-09T02:17:32.576Z,18.30
2018-10-09T02:20:01.275Z,15.37
2018-10-09T02:22:29.738Z,15.77
2018-10-09T02:24:58.440Z,18.20
2018-10-09T02:27:26.879Z,19.10
2018-10-09T02:29:55.650Z,21.00
2018-10-09T02:32:24.092Z,14.67
2018-10-09T02:34:52.576Z,14.07
2018-10-09T02:37:21.452Z,20.77
2018-10-09T02:39:50.163Z,21.03
2018-10-09T02:42:18.626Z,19.80
2018-10-09T02:44:47.540Z,18.87
2018-10-09T02:47:16.222Z,19.03
2018-10-09T02:49:45.347Z,16.00
2018-10-09T02:52:14.097Z,16.10
2018-10-09T02:54:42.524Z,15.27
2018-10-09T02:57:10.953Z,18.27
2018-10-09T02:59:39.481Z,21.73
2018-10-09T03:02:08.123Z,16.90
2018-10-09T03:04:36.880Z,17.87
2018-10-09T03:07:05.594Z,20.50
2018-10-09T03:09:34.035Z,21.63
2018-10-09T03:12:02.492Z,20.07
2018-10-09T03:14:31.585Z,20.67
2018-10-09T03:17:00.311Z,15.30
2018-10-09T03:19:29.117Z,16.83
2018-10-09T03:21:57.895Z,16.20
2018-10-09T03:24:26.994Z,16.77
2018-10-09T03:26:55.682Z,17.73
2018-10-09T03:29:24.361Z,18.50
2018-10-09T03:31:52.874Z,21.53
2018-10-09T03:34:21.333Z,21.63
2018-10-09T03:36:49.888Z,15.07
2018-10-09T03:39:18.399Z,22.73
2018-10-09T03:41:47.114Z,19.57
2018-10-09T03:44:15.568Z,23.43
2018-10-09T03:46:44.065Z,17.60
2018-10-09T03:49:12.672Z,18.70
2018-10-09T03:51:41.379Z,21.47
2018-10-09T03:54:09.868Z,16.30
2018-10-09T03:56:38.341Z,21.17
2018-10-09T03:59:06.956Z,17.73
2018-10-09T04:01:35.419Z,21.70
2018-10-09T04:04:04.390Z,20.17
2018-10-09T04:06:32.885Z,19.30
2018-10-09T04:09:01.422Z,24.43
2018-10-09T04:11:29.838Z,22.83
2018-10-09T04:13:58.353Z,19.40
2018-10-09T04:16:26.829Z,21.40
2018-10-09T04:18:55.235Z,21.47
2018-10-09T04:21:23.657Z,20.93
2018-10-09T04:23:52.080Z,19.03
2018-10-09T04:26:20.772Z,17.30
2018-10-09T04:28:49.467Z,21.80
2018-10-09T04:31:18.177Z,20.63
2018-10-09T04:33:46.686Z,23.20
2018-10-09T04:36:15.201Z,25.77
2018-10-09T04:38:43.901Z,36.63
2018-10-09T04:41:12.396Z,26.83
2018-10-09T04:43:40.889Z,32.73
2018-10-09T04:46:09.321Z,27.07
2018-10-09T04:48:38.259Z,28.07
2018-10-09T04:51:06.956Z,26.03
2018-10-09T04:53:35.482Z,24.50
2018-10-09T04:56:03.934Z,24.60
2018-10-09T04:58:32.632Z,25.10
2018-10-09T05:01:01.115Z,24.40
2018-10-09T05:03:29.839Z,35.33
2018-10-09T05:05:58.438Z,28.80
2018-10-09T05:08:26.868Z,23.27
2018-10-09T05:10:55.347Z,31.70
2018-10-09T05:13:23.787Z,24.60
2018-10-09T05:15:52.313Z,29.57
2018-10-09T05:18:21.269Z,27.10
2018-10-09T05:20:49.946Z,28.97
2018-10-09T05:23:18.454Z,28.63
2018-10-09T05:25:47.103Z,25.37
2018-10-09T05:28:15.796Z,37.47
2018-10-09T05:30:44.525Z,33.97
2018-10-09T05:33:12.967Z,27.53
2018-10-09T05:35:41.572Z,27.37
2018-10-09T05:38:10.304Z,34.90
2018-10-09T05:40:38.773Z,32.97
2018-10-09T05:43:07.573Z,31.33
2018-10-09T05:45:40.085Z,27.50
2018-10-09T05:48:09.821Z,36.20
2018-10-09T05:50:38.550Z,39.40
2018-10-09T05:53:07.114Z,42.53
2018-10-09T05:55:36.277Z,34.00
2018-10-09T05:58:04.759Z,34.60
2018-10-09T06:00:33.603Z,34.43
2018-10-09T06:03:02.399Z,37.13
2018-10-09T06:05:31.139Z,37.20
2018-10-09T06:07:59.829Z,36.47
2018-10-09T06:10:28.744Z,31.30
2018-10-09T06:12:57.256Z,43.30
2018-10-09T06:15:25.790Z,35.60
2018-10-09T06:17:54.267Z,32.63
2018-10-09T06:20:23.101Z,31.80
2018-10-09T06:22:53.542Z,30.07
2018-10-09T06:25:22.045Z,33.20
2018-10-09T06:27:50.616Z,34.73
2018-10-09T06:30:18.988Z,27.80
2018-10-09T06:32:47.684Z,30.03
2018-10-09T06:35:16.192Z,31.70
2018-10-09T06:37:44.666Z,30.63
2018-10-09T06:40:13.463Z,26.83
2018-10-09T06:42:41.928Z,27.57
2018-10-09T06:45:10.646Z,31.50
2018-10-09T06:47:39.305Z,29.67
2018-10-09T06:50:07.720Z,26.87
2018-10-09T06:52:36.212Z,27.97
2018-10-09T06:55:04.837Z,30.77
2018-10-09T06:57:33.625Z,24.97
2018-10-09T07:00:02.106Z,29.10
2018-10-09T07:02:30.580Z,27.53
2018-10-09T07:04:59.334Z,28.23
2018-10-09T07:07:28.070Z,30.93
2018-10-09T07:09:57.042Z,26.57
2018-10-09T07:12:26.829Z,27.33
2018-10-09T07:14:55.526Z,27.40
2018-10-09T07:17:23.967Z,25.60
2018-10-09T07:19:52.374Z,27.63
2018-10-09T07:22:21.026Z,30.70
2018-10-09T07:24:50.120Z,30.83
2018-10-09T07:27:18.564Z,34.60
2018-10-09T07:29:50.585Z,35.43
2018-10-09T07:32:19.277Z,31.57
2018-10-09T07:34:47.776Z,38.10
2018-10-09T07:37:16.232Z,38.47
2018-10-09T07:39:44.748Z,37.93
2018-10-09T07:42:13.398Z,40.47
2018-10-09T07:44:42.468Z,42.63
2018-10-09T07:47:11.106Z,48.17
2018-10-09T07:49:40.052Z,44.57
2018-10-09T07:52:08.873Z,39.33
2018-10-09T07:54:37.604Z,42.13
2018-10-09T07:57:06.211Z,40.90
2018-10-09T07:59:34.636Z,42.60
2018-10-09T08:02:03.480Z,38.43
2018-10-09T08:04:31.983Z,40.67
2018-10-09T08:07:01.030Z,38.07
2018-10-09T08:09:29.732Z,41.47
2018-10-09T08:11:58.301Z,38.70
2018-10-09T08:14:26.884Z,39.57
2018-10-09T08:16:55.354Z,42.23
2018-10-09T08:19:24.065Z,39.87
2018-10-09T08:21:52.587Z,39.77
2018-10-09T08:24:21.100Z,38.17
2018-10-09T08:26:49.557Z,36.17
2018-10-09T08:29:18.310Z,33.90
2018-10-09T08:31:46.797Z,29.43
2018-10-09T08:34:15.300Z,28.57
2018-10-09T08:36:44.630Z,29.23
2018-10-09T08:39:13.055Z,30.90
2018-10-09T08:41:41.794Z,25.13
2018-10-09T08:44:10.559Z,24.67
2018-10-09T08:46:39.456Z,28.30
2018-10-09T08:49:08.242Z,23.83
2018-10-09T08:51:36.680Z,23.37
2018-10-09T08:54:05.497Z,23.90
2018-10-09T08:56:33.950Z,26.20
2018-10-09T08:59:02.609Z,28.02
2018-10-09T09:01:31.441Z,21.70
2018-10-09T09:04:00.021Z,22.07
2018-10-09T09:06:28.457Z,21.13
2018-10-09T09:08:56.971Z,26.47
2018-10-09T09:11:25.602Z,23.83
2018-10-09T09:13:54.492Z,25.80
2018-10-09T09:16:22.914Z,20.97
2018-10-09T09:18:51.382Z,21.97
2018-10-09T09:21:20.221Z,19.63
2018-10-09T09:23:49.035Z,21.73
2018-10-09T09:26:18.455Z,22.00
2018-10-09T09:28:46.898Z,24.30
2018-10-09T09:31:15.597Z,19.63
2018-10-09T09:33:44.430Z,20.03
2018-10-09T09:36:12.921Z,18.50
2018-10-09T09:38:41.360Z,19.80
2018-10-09T09:41:10.222Z,20.33
2018-10-09T09:43:38.716Z,16.03
2018-10-09T09:46:07.942Z,44.00
2018-10-09T09:48:36.642Z,20.00
2018-10-09T09:51:05.326Z,16.80
2018-10-09T09:53:33.985Z,16.53
2018-10-09T09:56:02.495Z,17.10
2018-10-09T09:58:31.018Z,14.27
2018-10-09T10:01:04.705Z,16.53
2018-10-09T10:03:33.292Z,13.97
2018-10-09T10:06:01.792Z,16.80
2018-10-09T10:08:30.228Z,12.67
2018-10-09T10:10:58.737Z,12.83
2018-10-09T10:13:27.473Z,27.77
2018-10-09T10:15:56.043Z,21.13
2018-10-09T10:18:24.696Z,17.73
2018-10-09T10:20:53.687Z,18.27
2018-10-09T10:23:22.151Z,20.57
2018-10-09T10:25:51.011Z,15.60
2018-10-09T10:28:20.102Z,20.33
2018-10-09T10:30:49.339Z,23.13
2018-10-09T10:33:18.262Z,14.30
2018-10-09T10:35:46.756Z,20.40
2018-10-09T10:38:15.182Z,13.43
2018-10-09T10:40:43.734Z,15.83
2018-10-09T10:43:12.229Z,15.03
2018-10-09T10:45:40.677Z,17.03
2018-10-09T10:48:09.193Z,12.07
2018-10-09T10:50:37.662Z,12.83
2018-10-09T10:53:06.146Z,14.60
2018-10-09T10:55:34.656Z,12.43
2018-10-09T10:58:03.313Z,15.40
2018-10-09T11:00:32.271Z,16.77
2018-10-09T11:03:00.794Z,14.77
2018-10-09T11:05:29.195Z,12.53
2018-10-09T11:07:58.714Z,12.23
2018-10-09T11:10:28.053Z,10.17
2018-10-09T11:12:56.500Z,12.70
2018-10-09T11:15:25.091Z,12.13
2018-10-09T11:17:53.844Z,9.53
2018-10-09T11:20:22.401Z,10.80
2018-10-09T11:22:51.081Z,16.33
2018-10-09T11:25:19.505Z,13.20
2018-10-09T11:27:48.041Z,8.57
2018-10-09T11:30:16.909Z,11.27
2018-10-09T11:32:45.756Z,6.77
2018-10-09T11:35:14.512Z,9.07
2018-10-09T11:37:44.176Z,4.80
2018-10-09T11:40:12.746Z,6.13
2018-10-09T11:42:41.487Z,9.20
2018-10-09T11:45:10.077Z,8.23
2018-10-09T11:47:38.578Z,8.77
2018-10-09T11:50:08.791Z,4.70
2018-10-09T11:52:37.313Z,7.87
2018-10-09T11:55:05.925Z,8.80
2018-10-09T11:57:34.538Z,8.37
2018-10-09T12:00:03.334Z,4.53
2018-10-09T12:02:33.136Z,6.70
2018-10-09T12:05:01.826Z,9.27
2018-10-09T12:07:30.236Z,6.77
2018-10-09T12:09:58.809Z,12.13
2018-10-09T12:12:27.426Z,5.60
2018-10-09T12:14:56.237Z,9.13
2018-10-09T12:17:25.565Z,9.07
2018-10-09T12:19:54.116Z,8.70
2018-10-09T12:22:22.606Z,8.07
2018-10-09T12:24:51.138Z,7.80
2018-10-09T12:27:19.672Z,9.33
2018-10-09T12:29:49.210Z,9.10
2018-10-09T12:32:18.193Z,10.60
2018-10-09T12:34:46.657Z,7.73
2018-10-09T12:37:15.263Z,8.30
2018-10-09T12:39:44.328Z,9.17
2018-10-09T12:42:12.961Z,11.53
2018-10-09T12:44:41.344Z,13.03
2018-10-09T12:47:09.765Z,8.97
2018-10-09T12:49:39.451Z,8.33
2018-10-09T12:52:08.781Z,11.97
2018-10-09T12:54:37.269Z,7.37
2018-10-09T12:57:05.807Z,10.37
2018-10-09T12:59:34.860Z,9.20
2018-10-09T13:02:03.430Z,9.00
2018-10-09T13:04:33.207Z,9.67
2018-10-09T13:07:02.000Z,8.73
2018-10-09T13:09:30.489Z,9.37
2018-10-09T13:11:59.751Z,7.83
2018-10-09T13:14:30.138Z,7.70
2018-10-09T13:16:59.800Z,10.80
2018-10-09T13:19:28.446Z,8.27
2018-10-09T13:21:57.111Z,6.10
2018-10-09T13:24:25.279Z,8.00
2018-10-09T13:26:53.699Z,8.73
2018-10-09T13:29:22.191Z,9.90
2018-10-09T13:31:50.836Z,8.90
2018-10-09T13:34:19.823Z,8.27
2018-10-09T13:36:48.453Z,12.53
2018-10-09T13:39:17.007Z,6.80
2018-10-09T13:41:45.422Z,8.67
2018-10-09T13:44:13.973Z,8.67
2018-10-09T13:46:42.345Z,8.03
2018-10-09T13:49:11.371Z,6.73
2018-10-09T13:51:39.955Z,7.30
2018-10-09T13:54:08.399Z,7.27
2018-10-09T13:56:37.737Z,9.50
2018-10-09T13:59:06.245Z,6.90
2018-10-09T14:01:34.705Z,12.07
2018-10-09T14:04:03.598Z,5.20
2018-10-09T14:06:32.016Z,11.30
2018-10-09T14:09:00.497Z,7.53
2018-10-09T14:11:29.134Z,9.43
2018-10-09T14:13:57.912Z,10.47
2018-10-09T14:16:26.307Z,8.97
2018-10-09T14:18:54.932Z,17.47
2018-10-09T14:21:23.493Z,12.53
2018-10-09T14:23:52.143Z,6.90
2018-10-09T14:26:20.549Z,30.67
2018-10-09T14:28:48.972Z,10.57
2018-10-09T14:31:17.474Z,10.77
2018-10-09T14:33:45.917Z,11.57
2018-10-09T14:36:14.303Z,12.77
2018-10-09T14:38:42.758Z,10.17
2018-10-09T14:41:11.357Z,11.03
2018-10-09T14:43:39.898Z,12.80
2018-10-09T14:46:08.934Z,10.00
2018-10-09T14:48:37.357Z,10.93
2018-10-09T14:51:05.960Z,10.30
2018-10-09T14:53:34.734Z,9.90
2018-10-09T14:56:03.198Z,11.90
2018-10-09T14:58:31.665Z,9.07
2018-10-09T15:01:00.089Z,14.77
2018-10-09T15:03:28.611Z,11.47
2018-10-09T15:05:57.308Z,12.83
2018-10-09T15:08:25.699Z,11.37
2018-10-09T15:10:54.148Z,9.37
2018-10-09T15:13:23.009Z,8.77
2018-10-09T15:15:51.640Z,13.27
2018-10-09T15:18:20.090Z,12.23
2018-10-09T15:20:48.502Z,10.57
2018-10-09T15:23:16.938Z,13.03
2018-10-09T15:25:45.416Z,12.13
2018-10-09T15:28:13.840Z,8.83
2018-10-09T15:30:42.273Z,11.23
2018-10-09T15:33:10.923Z,11.33
2018-10-09T15:35:39.546Z,12.20
2018-10-09T15:38:07.964Z,10.47
2018-10-09T15:40:36.486Z,9.73
2018-10-09T15:43:05.132Z,9.67
2018-10-09T15:45:33.622Z,12.93
2018-10-09T15:48:02.096Z,9.17
2018-10-09T15:50:31.558Z,10.20
2018-10-09T15:52:59.963Z,8.67
2018-10-09T15:55:28.325Z,9.93
2018-10-09T15:57:57.013Z,10.03
2018-10-09T16:00:25.662Z,9.88
2018-10-09T16:02:54.427Z,9.57
2018-10-09T16:05:22.840Z,12.20
2018-10-09T16:07:51.548Z,18.37
2018-10-09T16:10:20.441Z,7.60
2018-10-09T16:12:49.041Z,11.87
2018-10-09T16:15:17.441Z,8.10
2018-10-09T16:17:45.932Z,9.83
2018-10-09T16:20:14.476Z,9.40
2018-10-09T16:22:42.879Z,10.23
2018-10-09T16:25:11.294Z,8.97
2018-10-09T16:27:39.950Z,7.27
2018-10-09T16:30:08.425Z,12.17
2018-10-09T16:32:36.976Z,10.73
2018-10-09T16:35:05.434Z,12.80
2018-10-09T16:37:33.872Z,11.30
2018-10-09T16:40:03.358Z,13.43
2018-10-09T16:42:32.811Z,13.57
2018-10-09T16:45:02.137Z,9.20
2018-10-09T16:47:30.735Z,10.67
2018-10-09T16:49:59.079Z,13.13
2018-10-09T16:52:27.429Z,15.13
2018-10-09T16:54:56.779Z,12.07
2018-10-09T16:57:25.196Z,14.50
2018-10-09T16:59:53.579Z,10.23
2018-10-09T17:02:22.174Z,13.53
2018-10-09T17:04:50.552Z,22.83
2018-10-09T17:07:19.273Z,9.93
2018-10-09T17:09:47.677Z,13.07
2018-10-09T17:12:16.085Z,14.90
2018-10-09T17:14:44.622Z,17.03
2018-10-09T17:17:13.276Z,9.33
2018-10-09T17:19:42.011Z,10.60
2018-10-09T17:22:10.731Z,11.60
2018-10-09T17:24:39.162Z,13.07
2018-10-09T17:27:07.972Z,12.50
2018-10-09T17:29:36.673Z,10.57
2018-10-09T17:32:06.632Z,14.37
2018-10-09T17:34:36.020Z,12.97
2018-10-09T17:37:05.765Z,11.87
2018-10-09T17:39:34.439Z,11.70
2018-10-09T17:42:02.931Z,11.80
2018-10-09T17:44:34.585Z,11.37
2018-10-09T17:47:07.074Z,13.90
2018-10-09T17:49:36.168Z,13.57
2018-10-09T17:52:04.588Z,14.57
2018-10-09T17:54:33.232Z,14.13
2018-10-09T17:57:01.756Z,12.73
2018-10-09T17:59:30.160Z,11.87
2018-10-09T18:01:58.992Z,10.27
2018-10-09T18:04:27.856Z,10.73
2018-10-09T18:06:57.158Z,10.00
2018-10-09T18:09:25.631Z,9.83
2018-10-09T18:11:54.052Z,20.67
2018-10-09T18:14:22.445Z,14.27
2018-10-09T18:16:51.012Z,10.43
2018-10-09T18:19:19.578Z,11.40
2018-10-09T18:21:48.087Z,10.33
2018-10-09T18:24:17.610Z,10.60
2018-10-09T18:26:46.118Z,12.87
2018-10-09T18:29:16.896Z,13.23
2018-10-09T18:31:45.435Z,11.73
2018-10-09T18:34:14.027Z,16.10
2018-10-09T18:36:42.855Z,12.70
2018-10-09T18:39:14.178Z,12.07
2018-10-09T18:41:43.694Z,9.17
2018-10-09T18:44:12.093Z,10.33
2018-10-09T18:46:41.403Z,16.37
2018-10-09T18:49:10.373Z,14.27
2018-10-09T18:51:39.473Z,9.33
2018-10-09T18:54:08.195Z,10.40
2018-10-09T18:56:36.739Z,12.33
2018-10-09T18:59:05.286Z,14.70
2018-10-09T19:01:33.815Z,10.23
2018-10-09T19:04:02.354Z,14.00
2018-10-09T19:06:30.991Z,15.83
2018-10-09T19:08:59.667Z,15.03
2018-10-09T19:11:28.458Z,13.53
2018-10-09T19:13:57.302Z,12.80
2018-10-09T19:16:26.422Z,17.00
2018-10-09T19:18:54.923Z,10.87
2018-10-09T19:21:23.533Z,13.87
2018-10-09T19:23:52.138Z,12.13
2018-10-09T19:26:20.594Z,13.60
2018-10-09T19:28:49.159Z,12.43
2018-10-09T19:31:17.771Z,14.17
2018-10-09T19:33:46.382Z,14.30
2018-10-09T19:36:14.861Z,9.07
2018-10-09T19:38:43.459Z,15.77
2018-10-09T19:41:11.949Z,15.80
2018-10-09T19:43:40.515Z,19.53
2018-10-09T19:46:09.057Z,18.60
2018-10-09T19:48:37.802Z,15.90
2018-10-09T19:51:06.478Z,19.40
2018-10-09T19:53:34.838Z,18.73
2018-10-09T19:56:03.358Z,19.33
2018-10-09T19:58:31.949Z,13.23
2018-10-09T20:01:00.518Z,13.30
2018-10-09T20:03:28.969Z,15.77
2018-10-09T20:05:57.465Z,14.67
2018-10-09T20:08:25.958Z,19.33
2018-10-09T20:10:54.771Z,17.83
2018-10-09T20:13:23.518Z,16.53
2018-10-09T20:15:52.077Z,19.13
2018-10-09T20:18:23.302Z,18.77
2018-10-09T20:20:52.474Z,19.23
2018-10-09T20:23:21.060Z,18.50
2018-10-09T20:25:49.625Z,19.27
2018-10-09T20:28:18.449Z,17.40
2018-10-09T20:30:54.283Z,16.37
2018-10-09T20:33:28.741Z,23.80
2018-10-09T20:35:57.306Z,21.33
2018-10-09T20:38:25.977Z,22.20
2018-10-09T20:40:54.678Z,19.07
2018-10-09T20:43:23.236Z,18.83
2018-10-09T20:45:51.683Z,19.23
2018-10-09T20:48:20.124Z,17.53
2018-10-09T20:50:48.525Z,18.67
2018-10-09T20:53:17.040Z,21.83
2018-10-09T20:55:46.373Z,19.97
2018-10-09T20:58:14.858Z,24.23
2018-10-09T21:00:43.550Z,17.67
2018-10-09T21:03:12.035Z,23.10
2018-10-09T21:05:40.546Z,20.30
2018-10-09T21:08:08.927Z,23.03
2018-10-09T21:10:37.382Z,21.67
2018-10-09T21:13:06.146Z,21.73
2018-10-09T21:15:34.618Z,20.10
2018-10-09T21:18:03.145Z,21.37
2018-10-09T21:20:31.489Z,18.80
2018-10-09T21:22:59.971Z,19.13
2018-10-09T21:25:28.493Z,20.67
2018-10-09T21:27:56.973Z,20.33
2018-10-09T21:30:25.557Z,18.97
2018-10-09T21:32:54.062Z,27.20
2018-10-09T21:35:22.546Z,22.10
2018-10-09T21:37:51.036Z,25.93
2018-10-09T21:40:20.174Z,22.93
2018-10-09T21:42:48.591Z,21.37
2018-10-09T21:45:17.905Z,22.50
2018-10-09T21:47:51.657Z,24.53
2018-10-09T21:50:20.123Z,22.93
2018-10-09T21:52:48.565Z,20.27
2018-10-09T21:55:17.005Z,25.40
2018-10-09T21:57:46.153Z,19.30
2018-10-09T22:00:14.766Z,23.23
2018-10-09T22:02:43.250Z,18.90
2018-10-09T22:05:11.688Z,21.07
2018-10-09T22:07:40.214Z,21.20
2018-10-09T22:10:08.688Z,20.93
2018-10-09T22:12:37.128Z,23.13
2018-10-09T22:15:06.007Z,19.00
2018-10-09T22:17:34.505Z,24.50
2018-10-09T22:20:02.979Z,22.70
2018-10-09T22:22:31.426Z,20.17
2018-10-09T22:24:59.836Z,20.07
2018-10-09T22:27:28.309Z,25.37
2018-10-09T22:29:56.698Z,24.37
2018-10-09T22:32:25.101Z,22.80
2018-10-09T22:34:53.525Z,23.73
2018-10-09T22:37:21.900Z,32.03
2018-10-09T22:39:50.369Z,22.07
2018-10-09T22:42:18.910Z,25.07
2018-10-09T22:44:47.296Z,25.67
2018-10-09T22:47:15.703Z,20.77
2018-10-09T22:49:44.196Z,26.20
2018-10-09T22:52:12.596Z,22.63
2018-10-09T22:54:41.147Z,19.77
2018-10-09T22:57:09.592Z,21.73
2018-10-09T22:59:38.016Z,23.63
2018-10-09T23:02:06.457Z,26.93
2018-10-09T23:04:36.052Z,21.17
2018-10-09T23:07:04.458Z,22.27
2018-10-09T23:09:32.908Z,27.47
2018-10-09T23:12:01.365Z,23.53
2018-10-09T23:14:29.826Z,23.27
2018-10-09T23:16:58.264Z,22.63
2018-10-09T23:19:26.665Z,26.93
2018-10-09T23:21:55.078Z,21.87
2018-10-09T23:24:23.686Z,21.90
2018-10-09T23:26:52.354Z,26.23
2018-10-09T23:29:20.795Z,29.10
2018-10-09T23:31:49.173Z,24.00
2018-10-09T23:34:17.602Z,23.40
2018-10-09T23:36:46.038Z,25.17
2018-10-09T23:39:14.506Z,28.97
2018-10-09T23:41:42.893Z,28.40
2018-10-09T23:44:11.277Z,29.00
2018-10-09T23:46:39.730Z,26.20
2018-10-09T23:49:08.719Z,33.40
2018-10-09T23:51:37.128Z,30.40
2018-10-09T23:54:05.636Z,33.37
2018-10-09T23:56:35.113Z,24.53
2018-10-09T23:59:03.648Z,27.13
